Terminal Aerodrome Forecast
Issued by NWS

Home | Current Version | Previous Version | Text Only | Print | Product List | Glossary On
Versions: 1 2 3 4 5 6 7 8 9 10 11 12 13 14 15 16
736
FTUS43 KMQT 251140
TAFSAW
TAF
KSAW 251140Z 2512/2612 05006KT P6SM OVC008
     FM251900 07008KT P6SM BKN015
     FM252100 07008KT P6SM SCT020
     FM260100 08006KT P6SM BKN025
     FM260300 11006KT P6SM BKN015
     FM260600 12007KT P6SM -FZRA OVC015
     FM260800 12006KT 3SM -FZRA BR OVC008
     FM261000 12006KT 2SM -FZRA BR OVC006=

USA.gov is the U.S. government's official web portal to all federal, state and local government web resources and services.